sensor_id;sensor_type;location;lat;lon;timestamp;temperature;humidity
13446;DHT22;6795;51.232;3.764;2023-04-24T03:52:40;10.60;99.90
13446;DHT22;6795;51.232;3.764;2023-04-24T03:55:08;8.90;99.90
13446;DHT22;6795;51.232;3.764;2023-04-24T03:57:40;8.90;99.90
13446;DHT22;6795;51.232;3.764;2023-04-24T04:00:11;8.90;99.90
13446;DHT22;6795;51.232;3.764;2023-04-24T04:02:40;8.90;99.90
13446;DHT22;6795;51.232;3.764;2023-04-24T04:05:09;8.90;99.90
13446;DHT22;6795;51.232;3.764;2023-04-24T04:07:37;8.90;99.90
13446;DHT22;6795;51.232;3.764;2023-04-24T04:10:06;8.90;99.90
13446;DHT22;6795;51.232;3.764;2023-04-24T04:12:35;8.80;99.90
13446;DHT22;6795;51.232;3.764;2023-04-24T04:15:04;8.80;99.90
13446;DHT22;6795;51.232;3.764;2023-04-24T04:17:35;8.80;99.90
13446;DHT22;6795;51.232;3.764;2023-04-24T04:20:06;8.80;99.90
13446;DHT22;6795;51.232;3.764;2023-04-24T04:22:37;8.80;99.90
13446;DHT22;6795;51.232;3.764;2023-04-24T04:25:08;8.90;99.90
13446;DHT22;6795;51.232;3.764;2023-04-24T04:27:36;8.80;99.90
13446;DHT22;6795;51.232;3.764;2023-04-24T04:30:06;8.80;99.90
13446;DHT22;6795;51.232;3.764;2023-04-24T04:32:36;8.80;99.90
13446;DHT22;6795;51.232;3.764;2023-04-24T04:35:05;8.80;99.90
13446;DHT22;6795;51.232;3.764;2023-04-24T04:37:34;8.80;99.90
13446;DHT22;6795;51.232;3.764;2023-04-24T04:40:03;8.80;99.90
13446;DHT22;6795;51.232;3.764;2023-04-24T04:42:34;8.80;99.90
13446;DHT22;6795;51.232;3.764;2023-04-24T04:45:02;8.80;99.90
13446;DHT22;6795;51.232;3.764;2023-04-24T04:47:31;8.80;99.90
13446;DHT22;6795;51.232;3.764;2023-04-24T04:50:01;8.80;99.90
13446;DHT22;6795;51.232;3.764;2023-04-24T04:52:30;8.80;99.90
13446;DHT22;6795;51.232;3.764;2023-04-24T04:57:27;8.70;99.90
13446;DHT22;6795;51.232;3.764;2023-04-24T04:59:56;8.70;99.90
13446;DHT22;6795;51.232;3.764;2023-04-24T05:02:24;8.80;99.90
13446;DHT22;6795;51.232;3.764;2023-04-24T05:04:52;8.80;99.90
13446;DHT22;6795;51.232;3.764;2023-04-24T05:07:23;8.80;99.90
13446;DHT22;6795;51.232;3.764;2023-04-24T05:09:51;8.80;99.90
13446;DHT22;6795;51.232;3.764;2023-04-24T05:12:20;8.90;99.90
13446;DHT22;6795;51.232;3.764;2023-04-24T05:14:50;8.90;99.90
13446;DHT22;6795;51.232;3.764;2023-04-24T05:17:19;8.90;99.90
13446;DHT22;6795;51.232;3.764;2023-04-24T05:19:47;9.00;99.90
13446;DHT22;6795;51.232;3.764;2023-04-24T05:22:16;9.00;99.90
13446;DHT22;6795;51.232;3.764;2023-04-24T05:24:47;9.00;99.90
13446;DHT22;6795;51.232;3.764;2023-04-24T05:27:15;9.10;99.90
13446;DHT22;6795;51.232;3.764;2023-04-24T05:29:44;9.10;99.90
13446;DHT22;6795;51.232;3.764;2023-04-24T05:32:12;9.10;99.90
13446;DHT22;6795;51.232;3.764;2023-04-24T05:34:41;9.10;99.90
13446;DHT22;6795;51.232;3.764;2023-04-24T05:37:11;9.10;99.90
13446;DHT22;6795;51.232;3.764;2023-04-24T05:39:40;9.10;99.90
13446;DHT22;6795;51.232;3.764;2023-04-24T05:42:10;9.10;99.90
13446;DHT22;6795;51.232;3.764;2023-04-24T05:44:38;9.10;99.90
13446;DHT22;6795;51.232;3.764;2023-04-24T05:47:07;9.10;99.90
13446;DHT22;6795;51.232;3.764;2023-04-24T05:49:35;9.10;99.90
13446;DHT22;6795;51.232;3.764;2023-04-24T05:52:04;9.10;99.90
13446;DHT22;6795;51.232;3.764;2023-04-24T05:54:33;9.20;99.90
13446;DHT22;6795;51.232;3.764;2023-04-24T05:57:04;9.10;99.90
13446;DHT22;6795;51.232;3.764;2023-04-24T05:59:37;9.10;99.90
13446;DHT22;6795;51.232;3.764;2023-04-24T06:02:06;9.10;99.90
13446;DHT22;6795;51.232;3.764;2023-04-24T06:04:34;9.00;99.90
13446;DHT22;6795;51.232;3.764;2023-04-24T06:07:04;9.00;99.90
13446;DHT22;6795;51.232;3.764;2023-04-24T06:09:33;9.00;99.90
13446;DHT22;6795;51.232;3.764;2023-04-24T06:12:02;9.10;99.90
13446;DHT22;6795;51.232;3.764;2023-04-24T06:14:30;9.10;99.90
13446;DHT22;6795;51.232;3.764;2023-04-24T06:17:00;9.10;99.90
13446;DHT22;6795;51.232;3.764;2023-04-24T06:19:28;9.00;99.90
13446;DHT22;6795;51.232;3.764;2023-04-24T06:21:56;9.10;99.90
13446;DHT22;6795;51.232;3.764;2023-04-24T06:31:54;9.10;99.90
13446;DHT22;6795;51.232;3.764;2023-04-24T06:34:24;8.90;99.90
13446;DHT22;6795;51.232;3.764;2023-04-24T07:09:10;8.90;99.90
13446;DHT22;6795;51.232;3.764;2023-04-24T07:11:40;9.40;99.90
13446;DHT22;6795;51.232;3.764;2023-04-24T07:14:09;9.30;99.90
13446;DHT22;6795;51.232;3.764;2023-04-24T07:16:37;9.30;99.90
13446;DHT22;6795;51.232;3.764;2023-04-24T07:19:06;9.40;99.90
13446;DHT22;6795;51.232;3.764;2023-04-24T07:21:34;9.50;99.90
13446;DHT22;6795;51.232;3.764;2023-04-24T07:24:03;9.50;99.90
13446;DHT22;6795;51.232;3.764;2023-04-24T07:26:33;9.60;99.90
13446;DHT22;6795;51.232;3.764;2023-04-24T07:29:01;9.70;99.90
13446;DHT22;6795;51.232;3.764;2023-04-24T07:31:30;9.60;99.90
13446;DHT22;6795;51.232;3.764;2023-04-24T07:33:58;9.50;99.90
13446;DHT22;6795;51.232;3.764;2023-04-24T07:36:27;9.50;99.90
13446;DHT22;6795;51.232;3.764;2023-04-24T07:38:55;9.60;99.90
13446;DHT22;6795;51.232;3.764;2023-04-24T07:41:24;10.10;99.90
13446;DHT22;6795;51.232;3.764;2023-04-24T07:43:56;10.40;99.90
13446;DHT22;6795;51.232;3.764;2023-04-24T07:46:24;10.40;99.90
13446;DHT22;6795;51.232;3.764;2023-04-24T07:48:54;10.30;99.90
13446;DHT22;6795;51.232;3.764;2023-04-24T07:51:39;10.00;99.90
13446;DHT22;6795;51.232;3.764;2023-04-24T07:54:09;9.80;99.90
13446;DHT22;6795;51.232;3.764;2023-04-24T07:56:37;9.70;99.90
13446;DHT22;6795;51.232;3.764;2023-04-24T07:59:07;9.60;99.90
13446;DHT22;6795;51.232;3.764;2023-04-24T08:01:36;9.70;99.90
13446;DHT22;6795;51.232;3.764;2023-04-24T08:04:05;9.80;99.90
13446;DHT22;6795;51.232;3.764;2023-04-24T08:06:34;9.90;99.90
13446;DHT22;6795;51.232;3.764;2023-04-24T08:09:03;9.80;99.90
13446;DHT22;6795;51.232;3.764;2023-04-24T08:11:31;9.70;99.90
13446;DHT22;6795;51.232;3.764;2023-04-24T08:13:59;9.90;99.90
13446;DHT22;6795;51.232;3.764;2023-04-24T08:16:29;10.00;99.90
13446;DHT22;6795;51.232;3.764;2023-04-24T08:18:58;10.00;99.90
13446;DHT22;6795;51.232;3.764;2023-04-24T08:21:26;10.00;99.90
13446;DHT22;6795;51.232;3.764;2023-04-24T08:23:54;10.10;99.90
13446;DHT22;6795;51.232;3.764;2023-04-24T08:26:23;10.20;99.90
13446;DHT22;6795;51.232;3.764;2023-04-24T08:28:51;10.70;99.90
13446;DHT22;6795;51.232;3.764;2023-04-24T08:31:20;11.00;99.90
13446;DHT22;6795;51.232;3.764;2023-04-24T08:33:51;11.00;99.90
13446;DHT22;6795;51.232;3.764;2023-04-24T08:43:53;11.10;99.90
13446;DHT22;6795;51.232;3.764;2023-04-24T08:46:22;11.90;99.90
13446;DHT22;6795;51.232;3.764;2023-04-24T08:51:22;12.10;99.90
13446;DHT22;6795;51.232;3.764;2023-04-24T08:53:53;11.80;99.90
13446;DHT22;6795;51.232;3.764;2023-04-24T08:56:23;11.70;99.90
13446;DHT22;6795;51.232;3.764;2023-04-24T08:58:51;11.50;99.90
13446;DHT22;6795;51.232;3.764;2023-04-24T09:01:20;11.10;99.90
13446;DHT22;6795;51.232;3.764;2023-04-24T09:03:49;10.90;99.90
13446;DHT22;6795;51.232;3.764;2023-04-24T09:31:29;10.80;99.90
13446;DHT22;6795;51.232;3.764;2023-04-24T09:33:59;11.70;99.90
13446;DHT22;6795;51.232;3.764;2023-04-24T09:36:32;11.80;99.90
13446;DHT22;6795;51.232;3.764;2023-04-24T09:39:01;11.80;99.90
13446;DHT22;6795;51.232;3.764;2023-04-24T09:41:32;11.80;99.90
13446;DHT22;6795;51.232;3.764;2023-04-24T09:44:12;11.80;99.90
13446;DHT22;6795;51.232;3.764;2023-04-24T09:46:41;11.80;99.90
13446;DHT22;6795;51.232;3.764;2023-04-24T09:49:13;11.60;99.90
13446;DHT22;6795;51.232;3.764;2023-04-24T09:51:43;11.30;99.90
13446;DHT22;6795;51.232;3.764;2023-04-24T09:54:14;11.20;99.90
13446;DHT22;6795;51.232;3.764;2023-04-24T09:56:47;11.30;99.90
13446;DHT22;6795;51.232;3.764;2023-04-24T09:59:17;11.40;99.90
13446;DHT22;6795;51.232;3.764;2023-04-24T10:01:46;11.60;99.90
13446;DHT22;6795;51.232;3.764;2023-04-24T10:04:17;11.50;99.90
13446;DHT22;6795;51.232;3.764;2023-04-24T10:09:17;11.90;99.90
13446;DHT22;6795;51.232;3.764;2023-04-24T10:11:48;12.80;99.90
13446;DHT22;6795;51.232;3.764;2023-04-24T10:14:18;13.10;99.90
13446;DHT22;6795;51.232;3.764;2023-04-24T10:16:48;12.80;99.90
13446;DHT22;6795;51.232;3.764;2023-04-24T10:19:17;12.20;99.90
13446;DHT22;6795;51.232;3.764;2023-04-24T10:21:48;11.80;99.90
13446;DHT22;6795;51.232;3.764;2023-04-24T10:24:18;11.70;99.90
13446;DHT22;6795;51.232;3.764;2023-04-24T10:26:47;12.20;99.90
13446;DHT22;6795;51.232;3.764;2023-04-24T10:29:17;12.70;99.90
13446;DHT22;6795;51.232;3.764;2023-04-24T10:31:46;13.00;99.90
13446;DHT22;6795;51.232;3.764;2023-04-24T10:34:16;12.90;99.90
13446;DHT22;6795;51.232;3.764;2023-04-24T10:36:49;12.90;99.90
13446;DHT22;6795;51.232;3.764;2023-04-24T10:39:22;13.00;99.90
13446;DHT22;6795;51.232;3.764;2023-04-24T10:41:54;12.80;99.90
13446;DHT22;6795;51.232;3.764;2023-04-24T10:44:24;12.70;99.90
13446;DHT22;6795;51.232;3.764;2023-04-24T10:46:54;12.60;99.90
13446;DHT22;6795;51.232;3.764;2023-04-24T10:49:29;13.40;99.90
13446;DHT22;6795;51.232;3.764;2023-04-24T10:52:03;14.20;99.90
13446;DHT22;6795;51.232;3.764;2023-04-24T11:02:48;14.30;99.90
13446;DHT22;6795;51.232;3.764;2023-04-24T11:05:20;15.20;99.90
13446;DHT22;6795;51.232;3.764;2023-04-24T11:08:12;14.60;99.90
13446;DHT22;6795;51.232;3.764;2023-04-24T11:10:45;14.20;99.90
13446;DHT22;6795;51.232;3.764;2023-04-24T11:13:15;14.90;99.90
13446;DHT22;6795;51.232;3.764;2023-04-24T11:18:14;15.40;99.90
13446;DHT22;6795;51.232;3.764;2023-04-24T11:20:43;15.70;99.80
13446;DHT22;6795;51.232;3.764;2023-04-24T11:23:13;15.60;98.40
13446;DHT22;6795;51.232;3.764;2023-04-24T11:25:42;14.50;99.90
13446;DHT22;6795;51.232;3.764;2023-04-24T11:28:15;14.20;99.90
13446;DHT22;6795;51.232;3.764;2023-04-24T11:30:44;14.20;99.90
13446;DHT22;6795;51.232;3.764;2023-04-24T11:33:20;14.50;99.90
13446;DHT22;6795;51.232;3.764;2023-04-24T11:35:51;14.80;99.90
13446;DHT22;6795;51.232;3.764;2023-04-24T11:38:21;14.30;99.90
13446;DHT22;6795;51.232;3.764;2023-04-24T11:40:52;14.00;99.90
13446;DHT22;6795;51.232;3.764;2023-04-24T11:43:21;13.90;99.90
13446;DHT22;6795;51.232;3.764;2023-04-24T11:45:51;14.00;99.90
13446;DHT22;6795;51.232;3.764;2023-04-24T11:48:20;13.60;99.90
13446;DHT22;6795;51.232;3.764;2023-04-24T11:50:50;13.40;99.90
13446;DHT22;6795;51.232;3.764;2023-04-24T11:53:21;13.30;99.90
13446;DHT22;6795;51.232;3.764;2023-04-24T11:55:49;13.50;99.90
13446;DHT22;6795;51.232;3.764;2023-04-24T11:58:21;13.80;99.90
13446;DHT22;6795;51.232;3.764;2023-04-24T12:00:56;13.90;99.90
13446;DHT22;6795;51.232;3.764;2023-04-24T12:03:25;13.70;99.90
13446;DHT22;6795;51.232;3.764;2023-04-24T12:06:04;13.20;99.90
13446;DHT22;6795;51.232;3.764;2023-04-24T12:11:06;13.20;99.90
13446;DHT22;6795;51.232;3.764;2023-04-24T12:13:35;13.70;99.90
13446;DHT22;6795;51.232;3.764;2023-04-24T12:16:04;13.80;99.90
13446;DHT22;6795;51.232;3.764;2023-04-24T12:18:33;13.60;99.90
13446;DHT22;6795;51.232;3.764;2023-04-24T12:21:18;13.50;99.90
13446;DHT22;6795;51.232;3.764;2023-04-24T12:23:50;13.70;99.90
13446;DHT22;6795;51.232;3.764;2023-04-24T12:26:19;14.10;99.90
13446;DHT22;6795;51.232;3.764;2023-04-24T12:28:51;14.60;99.90
13446;DHT22;6795;51.232;3.764;2023-04-24T12:31:21;15.10;99.90
13446;DHT22;6795;51.232;3.764;2023-04-24T12:33:50;15.40;99.90
13446;DHT22;6795;51.232;3.764;2023-04-24T12:36:21;15.90;99.90
13446;DHT22;6795;51.232;3.764;2023-04-24T12:38:54;16.10;99.90
13446;DHT22;6795;51.232;3.764;2023-04-24T12:41:22;16.50;99.90
13446;DHT22;6795;51.232;3.764;2023-04-24T12:43:51;16.40;99.40
13446;DHT22;6795;51.232;3.764;2023-04-24T12:46:20;16.10;99.90
13446;DHT22;6795;51.232;3.764;2023-04-24T12:48:49;17.00;99.90
13446;DHT22;6795;51.232;3.764;2023-04-24T12:51:17;17.00;96.90
13446;DHT22;6795;51.232;3.764;2023-04-24T12:56:16;17.30;99.10
13446;DHT22;6795;51.232;3.764;2023-04-24T12:58:44;17.20;97.20
13446;DHT22;6795;51.232;3.764;2023-04-24T13:01:12;17.20;95.90
13446;DHT22;6795;51.232;3.764;2023-04-24T13:03:41;17.30;95.30
13446;DHT22;6795;51.232;3.764;2023-04-24T13:06:10;16.60;97.00
13446;DHT22;6795;51.232;3.764;2023-04-24T13:08:38;16.40;98.20
13446;DHT22;6795;51.232;3.764;2023-04-24T13:13:36;15.60;98.60
13446;DHT22;6795;51.232;3.764;2023-04-24T13:18:34;14.30;99.90
13446;DHT22;6795;51.232;3.764;2023-04-24T13:21:03;13.60;99.90
13446;DHT22;6795;51.232;3.764;2023-04-24T13:23:31;13.80;99.90
13446;DHT22;6795;51.232;3.764;2023-04-24T13:25:59;14.00;99.90
13446;DHT22;6795;51.232;3.764;2023-04-24T13:28:28;13.70;99.90
13446;DHT22;6795;51.232;3.764;2023-04-24T13:33:27;13.60;99.90
13446;DHT22;6795;51.232;3.764;2023-04-24T13:35:55;14.00;99.90
13446;DHT22;6795;51.232;3.764;2023-04-24T13:38:23;13.80;99.90
13446;DHT22;6795;51.232;3.764;2023-04-24T13:40:52;13.30;99.90
13446;DHT22;6795;51.232;3.764;2023-04-24T13:43:20;13.00;99.90
13446;DHT22;6795;51.232;3.764;2023-04-24T13:45:48;13.30;99.90
13446;DHT22;6795;51.232;3.764;2023-04-24T13:48:18;13.50;99.90
13446;DHT22;6795;51.232;3.764;2023-04-24T13:50:47;13.50;99.90
13446;DHT22;6795;51.232;3.764;2023-04-24T13:53:16;13.90;99.90
13446;DHT22;6795;51.232;3.764;2023-04-24T13:55:47;14.50;99.90
13446;DHT22;6795;51.232;3.764;2023-04-24T13:58:17;14.90;99.60
13446;DHT22;6795;51.232;3.764;2023-04-24T14:00:46;15.20;99.90
13446;DHT22;6795;51.232;3.764;2023-04-24T14:05:45;15.60;99.80
13446;DHT22;6795;51.232;3.764;2023-04-24T14:08:13;16.20;97.20
13446;DHT22;6795;51.232;3.764;2023-04-24T14:10:42;15.20;97.60
13446;DHT22;6795;51.232;3.764;2023-04-24T14:13:11;14.30;97.60
13446;DHT22;6795;51.232;3.764;2023-04-24T14:15:39;14.70;98.30
13446;DHT22;6795;51.232;3.764;2023-04-24T14:18:10;15.60;98.60
13446;DHT22;6795;51.232;3.764;2023-04-24T14:20:40;15.90;97.60
13446;DHT22;6795;51.232;3.764;2023-04-24T14:23:10;15.20;97.60
13446;DHT22;6795;51.232;3.764;2023-04-24T14:25:38;15.40;97.40
13446;DHT22;6795;51.232;3.764;2023-04-24T14:28:07;14.70;96.20
13446;DHT22;6795;51.232;3.764;2023-04-24T14:30:35;14.70;97.70
13446;DHT22;6795;51.232;3.764;2023-04-24T14:33:04;15.10;95.40
13446;DHT22;6795;51.232;3.764;2023-04-24T14:35:35;15.40;96.00
13446;DHT22;6795;51.232;3.764;2023-04-24T14:38:03;15.80;95.70
13446;DHT22;6795;51.232;3.764;2023-04-24T14:40:33;15.70;95.60
13446;DHT22;6795;51.232;3.764;2023-04-24T14:43:21;15.70;96.80
13446;DHT22;6795;51.232;3.764;2023-04-24T14:45:50;16.30;97.00
13446;DHT22;6795;51.232;3.764;2023-04-24T14:48:19;16.20;94.30
13446;DHT22;6795;51.232;3.764;2023-04-24T14:50:47;15.10;96.70
13446;DHT22;6795;51.232;3.764;2023-04-24T14:53:16;14.50;97.90
13446;DHT22;6795;51.232;3.764;2023-04-24T14:55:46;14.20;96.90
13446;DHT22;6795;51.232;3.764;2023-04-24T14:58:14;14.60;97.40
13446;DHT22;6795;51.232;3.764;2023-04-24T15:00:42;15.00;97.30
13446;DHT22;6795;51.232;3.764;2023-04-24T15:03:11;14.40;95.70
13446;DHT22;6795;51.232;3.764;2023-04-24T15:10:37;13.90;96.80
13446;DHT22;6795;51.232;3.764;2023-04-24T15:13:07;13.60;99.90
13446;DHT22;6795;51.232;3.764;2023-04-24T15:15:36;13.90;99.90
13446;DHT22;6795;51.232;3.764;2023-04-24T15:18:05;13.90;99.90
13446;DHT22;6795;51.232;3.764;2023-04-24T15:20:35;14.00;99.90
13446;DHT22;6795;51.232;3.764;2023-04-24T15:23:07;14.00;99.80
13446;DHT22;6795;51.232;3.764;2023-04-24T15:25:36;14.30;99.90
13446;DHT22;6795;51.232;3.764;2023-04-24T15:28:07;14.80;98.30
13446;DHT22;6795;51.232;3.764;2023-04-24T15:30:36;14.80;98.30
13446;DHT22;6795;51.232;3.764;2023-04-24T15:33:04;14.10;98.90
13446;DHT22;6795;51.232;3.764;2023-04-24T15:35:33;13.50;99.50
13446;DHT22;6795;51.232;3.764;2023-04-24T15:38:02;13.10;99.90
13446;DHT22;6795;51.232;3.764;2023-04-24T15:40:31;12.70;99.90
13446;DHT22;6795;51.232;3.764;2023-04-24T15:45:29;12.30;99.90
13446;DHT22;6795;51.232;3.764;2023-04-24T15:47:59;12.10;99.90
13446;DHT22;6795;51.232;3.764;2023-04-24T15:50:27;11.90;99.90
13446;DHT22;6795;51.232;3.764;2023-04-24T15:52:56;12.10;99.90
13446;DHT22;6795;51.232;3.764;2023-04-24T15:55:25;12.10;99.90
13446;DHT22;6795;51.232;3.764;2023-04-24T15:57:53;11.90;99.90
13446;DHT22;6795;51.232;3.764;2023-04-24T16:00:22;11.60;99.90
13446;DHT22;6795;51.232;3.764;2023-04-24T16:02:52;11.70;99.90
13446;DHT22;6795;51.232;3.764;2023-04-24T16:05:20;12.00;99.90
13446;DHT22;6795;51.232;3.764;2023-04-24T16:07:50;12.20;99.90
13446;DHT22;6795;51.232;3.764;2023-04-24T16:10:19;12.50;99.90
13446;DHT22;6795;51.232;3.764;2023-04-24T16:12:47;12.60;99.90
13446;DHT22;6795;51.232;3.764;2023-04-24T16:15:17;12.50;99.90
13446;DHT22;6795;51.232;3.764;2023-04-24T16:17:46;12.30;99.90
13446;DHT22;6795;51.232;3.764;2023-04-24T16:20:16;12.30;99.90
13446;DHT22;6795;51.232;3.764;2023-04-24T16:22:44;12.10;99.90
13446;DHT22;6795;51.232;3.764;2023-04-24T16:25:12;12.20;99.90
13446;DHT22;6795;51.232;3.764;2023-04-24T16:27:41;12.20;99.90
13446;DHT22;6795;51.232;3.764;2023-04-24T16:30:10;12.20;99.90
13446;DHT22;6795;51.232;3.764;2023-04-24T16:32:38;12.20;99.90
13446;DHT22;6795;51.232;3.764;2023-04-24T16:35:07;12.20;99.90
13446;DHT22;6795;51.232;3.764;2023-04-24T16:37:37;12.60;99.90
13446;DHT22;6795;51.232;3.764;2023-04-24T16:40:07;13.10;99.90
13446;DHT22;6795;51.232;3.764;2023-04-24T16:42:37;12.80;99.90
13446;DHT22;6795;51.232;3.764;2023-04-24T16:45:07;12.60;99.90
13446;DHT22;6795;51.232;3.764;2023-04-24T16:47:36;12.30;99.90
13446;DHT22;6795;51.232;3.764;2023-04-24T16:50:05;12.00;99.90
13446;DHT22;6795;51.232;3.764;2023-04-24T16:52:34;11.80;99.90
13446;DHT22;6795;51.232;3.764;2023-04-24T16:55:05;11.70;99.90
13446;DHT22;6795;51.232;3.764;2023-04-24T16:57:33;11.60;99.90
13446;DHT22;6795;51.232;3.764;2023-04-24T17:00:02;11.80;99.90
13446;DHT22;6795;51.232;3.764;2023-04-24T17:02:31;12.20;99.90
13446;DHT22;6795;51.232;3.764;2023-04-24T17:05:02;12.20;99.90
13446;DHT22;6795;51.232;3.764;2023-04-24T17:07:30;11.90;99.90
13446;DHT22;6795;51.232;3.764;2023-04-24T17:09:59;11.70;99.90
13446;DHT22;6795;51.232;3.764;2023-04-24T17:12:29;11.40;99.90
13446;DHT22;6795;51.232;3.764;2023-04-24T17:14:57;11.40;99.90
13446;DHT22;6795;51.232;3.764;2023-04-24T17:17:25;11.40;99.90
13446;DHT22;6795;51.232;3.764;2023-04-24T17:19:54;11.60;99.90
13446;DHT22;6795;51.232;3.764;2023-04-24T17:22:22;11.60;99.90
13446;DHT22;6795;51.232;3.764;2023-04-24T17:24:51;11.50;99.90
13446;DHT22;6795;51.232;3.764;2023-04-24T17:27:19;11.50;99.90
13446;DHT22;6795;51.232;3.764;2023-04-24T17:29:51;11.30;99.90
13446;DHT22;6795;51.232;3.764;2023-04-24T17:32:20;11.30;99.90
13446;DHT22;6795;51.232;3.764;2023-04-24T17:37:17;11.30;99.90
13446;DHT22;6795;51.232;3.764;2023-04-24T17:39:49;11.00;99.90
13446;DHT22;6795;51.232;3.764;2023-04-24T17:42:17;10.90;99.90
13446;DHT22;6795;51.232;3.764;2023-04-24T17:44:45;10.80;99.90
13446;DHT22;6795;51.232;3.764;2023-04-24T18:09:38;10.70;99.90
13446;DHT22;6795;51.232;3.764;2023-04-24T18:12:07;9.90;99.90
13446;DHT22;6795;51.232;3.764;2023-04-24T18:14:36;9.90;99.90
13446;DHT22;6795;51.232;3.764;2023-04-24T18:17:04;9.80;99.90
13446;DHT22;6795;51.232;3.764;2023-04-24T18:22:03;9.70;99.90
13446;DHT22;6795;51.232;3.764;2023-04-24T18:24:32;9.50;99.90
13446;DHT22;6795;51.232;3.764;2023-04-24T18:27:00;9.50;99.90
13446;DHT22;6795;51.232;3.764;2023-04-24T18:29:28;9.40;99.90
13446;DHT22;6795;51.232;3.764;2023-04-24T18:31:57;9.50;99.90
13446;DHT22;6795;51.232;3.764;2023-04-24T18:34:25;9.60;99.90
13446;DHT22;6795;51.232;3.764;2023-04-24T18:36:54;9.50;99.90
13446;DHT22;6795;51.232;3.764;2023-04-24T18:39:24;9.60;99.90
13446;DHT22;6795;51.232;3.764;2023-04-24T18:41:53;9.60;99.90
13446;DHT22;6795;51.232;3.764;2023-04-24T18:44:21;9.50;99.90
13446;DHT22;6795;51.232;3.764;2023-04-24T18:46:49;9.60;99.90
13446;DHT22;6795;51.232;3.764;2023-04-24T18:49:18;9.60;99.90
13446;DHT22;6795;51.232;3.764;2023-04-24T18:51:46;9.50;99.90
13446;DHT22;6795;51.232;3.764;2023-04-24T18:54:20;9.40;99.90
13446;DHT22;6795;51.232;3.764;2023-04-24T18:56:50;9.40;99.90
13446;DHT22;6795;51.232;3.764;2023-04-24T18:59:18;9.40;99.90
13446;DHT22;6795;51.232;3.764;2023-04-24T19:01:47;9.40;99.90
13446;DHT22;6795;51.232;3.764;2023-04-24T19:04:15;9.30;99.90
13446;DHT22;6795;51.232;3.764;2023-04-24T19:06:47;9.40;99.90
13446;DHT22;6795;51.232;3.764;2023-04-24T19:09:15;9.40;99.90
13446;DHT22;6795;51.232;3.764;2023-04-24T19:11:43;9.40;99.90
13446;DHT22;6795;51.232;3.764;2023-04-24T19:14:13;9.30;99.90
13446;DHT22;6795;51.232;3.764;2023-04-24T19:16:42;9.30;99.90
13446;DHT22;6795;51.232;3.764;2023-04-24T19:19:11;9.30;99.90
13446;DHT22;6795;51.232;3.764;2023-04-24T19:21:39;9.30;99.90
13446;DHT22;6795;51.232;3.764;2023-04-24T19:24:08;9.30;99.90
13446;DHT22;6795;51.232;3.764;2023-04-24T19:26:36;9.30;99.90
13446;DHT22;6795;51.232;3.764;2023-04-24T19:29:05;9.20;99.90
13446;DHT22;6795;51.232;3.764;2023-04-24T19:31:35;9.20;99.90
13446;DHT22;6795;51.232;3.764;2023-04-24T19:34:03;9.20;99.90
13446;DHT22;6795;51.232;3.764;2023-04-24T19:36:34;9.10;99.90
13446;DHT22;6795;51.232;3.764;2023-04-24T19:39:03;9.00;99.90
13446;DHT22;6795;51.232;3.764;2023-04-24T19:41:31;9.00;99.90
13446;DHT22;6795;51.232;3.764;2023-04-24T20:56:04;8.90;99.90
13446;DHT22;6795;51.232;3.764;2023-04-24T20:58:36;8.80;99.90
13446;DHT22;6795;51.232;3.764;2023-04-24T21:01:04;8.70;99.90
13446;DHT22;6795;51.232;3.764;2023-04-24T21:03:33;8.70;99.90
13446;DHT22;6795;51.232;3.764;2023-04-24T21:06:02;8.50;99.90
13446;DHT22;6795;51.232;3.764;2023-04-24T21:08:30;8.50;99.90
13446;DHT22;6795;51.232;3.764;2023-04-24T21:10:59;8.50;99.90
13446;DHT22;6795;51.232;3.764;2023-04-24T21:13:27;8.50;99.90
13446;DHT22;6795;51.232;3.764;2023-04-24T21:18:26;8.40;99.90
13446;DHT22;6795;51.232;3.764;2023-04-24T21:25:53;8.20;99.90
